createdAt,value
2017-12-24T00:00:36.125Z,69.99
2017-12-24T00:03:10.666Z,70.20
2017-12-24T00:05:45.071Z,70.20
2017-12-24T00:08:19.609Z,70.04
2017-12-24T00:10:54.162Z,70.08
2017-12-24T00:13:28.684Z,69.91
2017-12-24T00:16:03.077Z,70.02
2017-12-24T00:18:37.637Z,69.88
2017-12-24T00:21:12.018Z,70.04
2017-12-24T00:23:46.603Z,70.02
2017-12-24T00:26:21.051Z,69.84
2017-12-24T00:28:55.621Z,69.95
2017-12-24T00:31:30.102Z,70.05
2017-12-24T00:34:04.556Z,69.94
2017-12-24T00:36:39.017Z,69.92
2017-12-24T00:39:13.562Z,70.08
2017-12-24T00:41:48.030Z,70.05
2017-12-24T00:44:22.590Z,70.11
2017-12-24T00:46:57.082Z,70.10
2017-12-24T00:49:31.405Z,70.22
2017-12-24T00:52:05.777Z,70.16
2017-12-24T00:54:40.384Z,69.90
2017-12-24T00:57:14.798Z,69.64
2017-12-24T00:59:49.350Z,69.52
2017-12-24T01:02:23.769Z,69.19
2017-12-24T01:04:58.306Z,69.13
2017-12-24T01:07:32.770Z,68.80
2017-12-24T01:10:07.199Z,68.68
2017-12-24T01:12:41.686Z,68.95
2017-12-24T01:15:16.078Z,68.82
2017-12-24T01:17:50.606Z,68.93
2017-12-24T01:20:25.093Z,68.98
2017-12-24T01:22:59.665Z,68.99
2017-12-24T01:25:34.245Z,68.88
2017-12-24T01:28:08.766Z,68.91
2017-12-24T01:30:43.171Z,69.11
2017-12-24T01:33:17.795Z,69.22
2017-12-24T01:35:52.182Z,69.59
2017-12-24T01:38:26.647Z,69.57
2017-12-24T01:41:01.059Z,69.16
2017-12-24T01:43:35.553Z,68.77
2017-12-24T01:46:09.991Z,68.80
2017-12-24T01:48:44.365Z,68.78
2017-12-24T01:51:18.773Z,68.73
2017-12-24T01:53:53.310Z,68.66
2017-12-24T01:56:27.765Z,68.35
2017-12-24T01:59:02.267Z,68.30
2017-12-24T02:01:36.725Z,68.23
2017-12-24T02:04:11.214Z,68.10
2017-12-24T02:06:45.638Z,68.15
2017-12-24T02:09:20.197Z,68.41
2017-12-24T02:11:54.622Z,68.34
2017-12-24T02:14:29.162Z,68.67
2017-12-24T02:17:03.589Z,68.97
2017-12-24T02:19:38.010Z,68.85
2017-12-24T02:22:12.613Z,68.72
2017-12-24T02:24:47.122Z,68.74
2017-12-24T02:27:21.485Z,68.56
2017-12-24T02:29:56.184Z,68.66
2017-12-24T02:32:30.626Z,68.50
2017-12-24T02:35:05.233Z,68.61
2017-12-24T02:37:39.697Z,68.71
2017-12-24T02:40:14.334Z,68.81
2017-12-24T02:42:48.682Z,68.71
2017-12-24T02:45:23.037Z,68.89
2017-12-24T02:47:57.569Z,68.84
2017-12-24T02:50:31.961Z,69.07
2017-12-24T02:53:06.597Z,69.31
2017-12-24T02:55:41.186Z,69.36
2017-12-24T02:58:15.814Z,69.49
2017-12-24T03:00:50.218Z,69.32
2017-12-24T03:03:24.782Z,69.40
2017-12-24T03:05:59.161Z,69.18
2017-12-24T03:08:33.637Z,69.02
2017-12-24T03:11:08.025Z,68.57
2017-12-24T03:13:42.554Z,68.46
2017-12-24T03:16:16.934Z,68.36
2017-12-24T03:18:51.542Z,68.14
2017-12-24T03:21:25.946Z,68.04
2017-12-24T03:24:00.373Z,68.00
2017-12-24T03:26:34.746Z,67.94
2017-12-24T03:29:09.221Z,68.09
2017-12-24T03:31:43.696Z,68.23
2017-12-24T03:34:18.230Z,68.23
2017-12-24T03:36:52.718Z,68.12
2017-12-24T03:39:27.278Z,68.13
2017-12-24T03:42:01.641Z,67.99
2017-12-24T03:44:36.171Z,67.95
2017-12-24T03:47:10.595Z,67.89
2017-12-24T03:49:45.199Z,67.78
2017-12-24T03:52:19.570Z,67.89
2017-12-24T03:54:54.049Z,68.25
2017-12-24T03:57:28.468Z,68.17
2017-12-24T04:00:02.982Z,68.40
2017-12-24T04:02:37.369Z,68.17
2017-12-24T04:05:11.782Z,68.14
2017-12-24T04:07:46.177Z,68.09
2017-12-24T04:10:20.533Z,68.12
2017-12-24T04:12:55.101Z,68.03
2017-12-24T04:15:29.518Z,67.87
2017-12-24T04:18:03.934Z,67.91
2017-12-24T04:20:38.291Z,68.24
2017-12-24T04:23:12.786Z,68.18
2017-12-24T04:25:47.165Z,68.33
2017-12-24T04:28:21.740Z,68.51
2017-12-24T04:30:56.162Z,68.26
2017-12-24T04:33:30.666Z,68.27
2017-12-24T04:36:05.031Z,68.61
2017-12-24T04:38:39.650Z,68.61
2017-12-24T04:41:14.222Z,68.72
2017-12-24T04:43:48.724Z,68.96
2017-12-24T04:46:23.114Z,69.05
2017-12-24T04:48:57.474Z,69.31
2017-12-24T04:51:31.890Z,69.43
2017-12-24T04:54:06.493Z,69.41
2017-12-24T04:56:40.854Z,69.36
2017-12-24T04:59:15.830Z,69.44
2017-12-24T05:01:50.217Z,69.34
2017-12-24T05:04:24.920Z,69.20
2017-12-24T05:06:59.369Z,69.10
2017-12-24T05:09:34.003Z,69.04
2017-12-24T05:12:08.437Z,68.71
2017-12-24T05:14:42.981Z,68.47
2017-12-24T05:17:17.497Z,68.48
2017-12-24T05:19:52.014Z,68.42
2017-12-24T05:22:26.386Z,68.19
2017-12-24T05:25:00.866Z,68.05
2017-12-24T05:27:35.270Z,67.84
2017-12-24T05:30:09.646Z,67.74
2017-12-24T05:32:44.175Z,67.71
2017-12-24T05:35:18.550Z,67.82
2017-12-24T05:37:53.108Z,67.67
2017-12-24T05:40:27.518Z,67.87
2017-12-24T05:43:02.017Z,68.08
2017-12-24T05:45:36.417Z,67.99
2017-12-24T05:48:10.966Z,68.21
2017-12-24T05:50:45.354Z,68.32
2017-12-24T05:53:19.977Z,68.14
2017-12-24T05:55:54.365Z,68.27
2017-12-24T05:58:28.871Z,68.18
2017-12-24T06:01:03.225Z,68.34
2017-12-24T06:03:37.763Z,68.42
2017-12-24T06:06:12.162Z,68.49
2017-12-24T06:08:46.802Z,68.49
2017-12-24T06:11:21.411Z,68.55
2017-12-24T06:13:55.919Z,68.35
2017-12-24T06:16:30.318Z,68.24
2017-12-24T06:19:04.805Z,68.22
2017-12-24T06:21:39.303Z,68.16
2017-12-24T06:24:13.781Z,68.25
2017-12-24T06:26:48.178Z,67.96
2017-12-24T06:29:22.747Z,67.87
2017-12-24T06:31:57.199Z,67.70
2017-12-24T06:34:31.749Z,67.64
2017-12-24T06:37:06.101Z,67.64
2017-12-24T06:39:40.850Z,67.62
2017-12-24T06:42:15.334Z,67.56
2017-12-24T06:44:50.407Z,67.42
2017-12-24T06:47:24.746Z,67.39
2017-12-24T06:49:59.249Z,67.15
2017-12-24T06:52:33.745Z,67.09
2017-12-24T06:55:08.137Z,67.25
2017-12-24T06:57:42.558Z,66.93
2017-12-24T07:00:16.934Z,66.82
2017-12-24T07:02:51.462Z,66.65
2017-12-24T07:05:25.898Z,66.76
2017-12-24T07:08:00.442Z,66.90
2017-12-24T07:10:34.829Z,67.01
2017-12-24T07:13:09.338Z,67.18
2017-12-24T07:15:43.867Z,67.08
2017-12-24T07:18:18.230Z,66.80
2017-12-24T07:20:52.734Z,66.80
2017-12-24T07:23:27.230Z,66.35
2017-12-24T07:26:01.689Z,66.36
2017-12-24T07:28:36.140Z,66.19
2017-12-24T07:31:10.629Z,65.85
2017-12-24T07:33:45.146Z,65.62
2017-12-24T07:36:19.582Z,65.39
2017-12-24T07:38:54.121Z,64.94
2017-12-24T07:41:28.530Z,65.01
2017-12-24T07:44:02.884Z,64.87
2017-12-24T07:46:37.237Z,64.71
2017-12-24T07:49:11.858Z,64.85
2017-12-24T07:51:46.274Z,64.47
2017-12-24T07:54:20.798Z,64.64
2017-12-24T07:56:55.214Z,64.87
2017-12-24T07:59:29.730Z,64.75
2017-12-24T08:02:04.081Z,64.50
2017-12-24T08:04:38.565Z,64.38
2017-12-24T08:07:12.987Z,63.88
2017-12-24T08:09:47.561Z,64.23
2017-12-24T08:12:21.994Z,63.90
2017-12-24T08:14:56.482Z,64.20
2017-12-24T08:17:30.954Z,64.09
2017-12-24T08:20:05.503Z,63.92
2017-12-24T08:22:40.046Z,63.67
2017-12-24T08:25:14.465Z,63.90
2017-12-24T08:27:48.943Z,63.88
2017-12-24T08:30:23.527Z,63.85
2017-12-24T08:32:58.038Z,63.69
2017-12-24T08:35:32.408Z,63.70
2017-12-24T08:38:06.970Z,63.56
2017-12-24T08:40:41.409Z,63.68
2017-12-24T08:43:16.077Z,63.56
2017-12-24T08:45:50.695Z,63.21
2017-12-24T08:48:25.235Z,63.49
2017-12-24T08:50:59.617Z,63.44
2017-12-24T08:53:34.162Z,63.67
2017-12-24T08:56:08.534Z,63.36
2017-12-24T08:58:43.025Z,63.52
2017-12-24T09:01:17.419Z,63.49
2017-12-24T09:03:51.984Z,63.47
2017-12-24T09:06:26.423Z,63.39
2017-12-24T09:09:00.914Z,63.55
2017-12-24T09:11:35.353Z,63.75
2017-12-24T09:14:09.986Z,64.11
2017-12-24T09:16:44.350Z,64.06
2017-12-24T09:19:18.963Z,64.07
2017-12-24T09:21:53.329Z,64.11
2017-12-24T09:24:27.859Z,63.90
2017-12-24T09:27:02.233Z,63.44
2017-12-24T09:29:36.734Z,63.41
2017-12-24T09:32:11.197Z,63.08
2017-12-24T09:34:45.696Z,62.98
2017-12-24T09:37:20.065Z,62.80
2017-12-24T09:39:54.546Z,61.92
2017-12-24T09:42:28.921Z,62.13
2017-12-24T09:45:03.534Z,61.76
2017-12-24T09:47:38.089Z,61.53
2017-12-24T09:50:12.438Z,61.45
2017-12-24T09:52:46.994Z,61.31
2017-12-24T09:55:21.366Z,60.95
2017-12-24T09:57:55.877Z,60.52
2017-12-24T10:00:30.351Z,60.68
2017-12-24T10:03:04.949Z,60.46
2017-12-24T10:05:39.344Z,60.53
2017-12-24T10:08:13.894Z,60.58
2017-12-24T10:10:48.437Z,60.67
2017-12-24T10:13:22.991Z,60.94
2017-12-24T10:15:57.450Z,61.29
2017-12-24T10:18:31.925Z,59.07
2017-12-24T10:21:06.337Z,100.00
2017-12-24T10:23:41.578Z,100.00
2017-12-24T10:26:16.129Z,100.00
2017-12-24T10:28:50.606Z,57.43
2017-12-24T10:31:25.018Z,100.00
2017-12-24T10:33:59.531Z,100.00
2017-12-24T10:36:33.898Z,100.00
2017-12-24T10:39:08.267Z,100.00
2017-12-24T10:41:43.292Z,100.00
2017-12-24T10:44:17.828Z,100.00
2017-12-24T10:46:52.232Z,100.00
2017-12-24T10:49:26.706Z,100.00
2017-12-24T10:52:01.214Z,100.00
2017-12-24T10:54:35.731Z,100.00
2017-12-24T10:57:10.116Z,100.00
2017-12-24T10:59:44.637Z,100.00
2017-12-24T11:02:19.036Z,100.00
2017-12-24T11:04:53.533Z,100.00
2017-12-24T11:07:27.942Z,100.00
2017-12-24T11:10:02.423Z,100.00
2017-12-24T11:12:37.070Z,100.00
2017-12-24T11:15:11.500Z,100.00
2017-12-24T11:17:46.061Z,100.00
2017-12-24T11:20:20.451Z,100.00
2017-12-24T11:22:55.077Z,100.00
2017-12-24T11:25:29.470Z,100.00
2017-12-24T11:28:04.394Z,100.00
2017-12-24T11:30:39.016Z,100.00
2017-12-24T11:33:13.594Z,100.00
2017-12-24T11:35:48.054Z,100.00
2017-12-24T11:38:22.558Z,100.00
2017-12-24T11:40:57.025Z,58.74
2017-12-24T11:43:31.505Z,58.80
2017-12-24T11:46:05.984Z,59.27
2017-12-24T11:48:40.479Z,59.97
2017-12-24T11:51:14.786Z,60.16
2017-12-24T11:53:49.510Z,59.51
2017-12-24T11:56:24.325Z,59.45
2017-12-24T11:58:58.815Z,59.71
2017-12-24T12:01:33.266Z,59.47
2017-12-24T12:04:07.783Z,59.55
2017-12-24T12:06:42.258Z,60.14
2017-12-24T12:09:16.677Z,61.08
2017-12-24T12:11:51.119Z,61.09
2017-12-24T12:14:25.660Z,60.70
2017-12-24T12:17:00.108Z,60.63
2017-12-24T12:19:34.750Z,60.07
2017-12-24T12:22:09.204Z,59.60
2017-12-24T12:24:43.779Z,60.90
2017-12-24T12:27:18.382Z,61.54
2017-12-24T12:29:52.874Z,61.49
2017-12-24T12:32:27.334Z,62.09
2017-12-24T12:35:01.882Z,62.28
2017-12-24T12:37:36.366Z,62.33
2017-12-24T12:40:10.773Z,62.32
2017-12-24T12:42:45.366Z,61.87
2017-12-24T12:45:19.774Z,62.36
2017-12-24T12:47:54.222Z,62.66
2017-12-24T12:50:28.697Z,63.04
2017-12-24T12:53:02.996Z,63.33
2017-12-24T12:55:37.446Z,63.39
2017-12-24T12:58:11.793Z,63.61
2017-12-24T13:00:46.255Z,63.55
2017-12-24T13:03:20.764Z,63.63
2017-12-24T13:05:55.133Z,63.96
2017-12-24T13:08:29.620Z,63.78
2017-12-24T13:11:04.050Z,63.89
2017-12-24T13:13:38.551Z,64.03
2017-12-24T13:16:12.906Z,64.44
2017-12-24T13:18:47.534Z,64.65
2017-12-24T13:21:21.889Z,64.72
2017-12-24T13:23:56.395Z,64.74
2017-12-24T13:26:30.850Z,64.67
2017-12-24T13:29:05.357Z,64.79
2017-12-24T13:31:39.714Z,64.60
2017-12-24T13:34:14.279Z,64.55
2017-12-24T13:36:48.727Z,64.41
2017-12-24T13:39:23.263Z,64.25
2017-12-24T13:41:57.729Z,64.32
2017-12-24T13:44:32.218Z,64.16
2017-12-24T13:47:06.586Z,64.19
2017-12-24T13:49:41.004Z,63.82
2017-12-24T13:52:15.479Z,63.82
2017-12-24T13:54:50.033Z,63.78
2017-12-24T13:57:24.435Z,63.69
2017-12-24T13:59:58.949Z,63.24
2017-12-24T14:02:33.456Z,63.40
2017-12-24T14:05:07.984Z,63.40
2017-12-24T14:07:42.465Z,63.54
2017-12-24T14:10:16.958Z,63.67
2017-12-24T14:12:51.456Z,63.50
2017-12-24T14:15:25.829Z,63.31
2017-12-24T14:18:00.301Z,63.36
2017-12-24T14:20:34.653Z,63.34
2017-12-24T14:23:09.148Z,63.28
2017-12-24T14:25:43.931Z,63.17
2017-12-24T14:28:18.538Z,62.93
2017-12-24T14:30:52.966Z,62.91
2017-12-24T14:33:27.539Z,62.79
2017-12-24T14:36:02.043Z,62.74
2017-12-24T14:38:36.594Z,62.37
2017-12-24T14:41:10.938Z,62.15
2017-12-24T14:43:45.505Z,62.32
2017-12-24T14:46:19.850Z,62.25
2017-12-24T14:48:54.785Z,62.12
2017-12-24T14:51:29.210Z,62.35
2017-12-24T14:54:04.629Z,62.49
2017-12-24T14:56:39.210Z,62.79
2017-12-24T14:59:13.670Z,63.00
2017-12-24T15:01:48.042Z,63.24
2017-12-24T15:04:22.525Z,63.55
2017-12-24T15:06:56.953Z,64.03
2017-12-24T15:09:31.447Z,64.16
2017-12-24T15:12:05.798Z,64.61
2017-12-24T15:14:40.365Z,64.85
2017-12-24T15:17:14.974Z,65.10
2017-12-24T15:19:49.357Z,65.64
2017-12-24T15:22:23.834Z,66.10
2017-12-24T15:24:58.382Z,66.17
2017-12-24T15:27:32.807Z,66.30
2017-12-24T15:30:07.378Z,66.79
2017-12-24T15:32:41.974Z,66.99
2017-12-24T15:35:16.393Z,67.17
2017-12-24T15:37:50.914Z,67.29
2017-12-24T15:40:25.341Z,67.49
2017-12-24T15:43:00.486Z,67.54
2017-12-24T15:45:35.027Z,67.73
2017-12-24T15:48:09.467Z,67.87
2017-12-24T15:50:44.200Z,67.80
2017-12-24T15:53:18.685Z,67.92
2017-12-24T15:55:53.065Z,68.09
2017-12-24T15:58:27.626Z,68.13
2017-12-24T16:01:02.094Z,68.21
2017-12-24T16:03:36.611Z,68.13
2017-12-24T16:06:10.959Z,68.15
2017-12-24T16:08:45.471Z,67.77
2017-12-24T16:11:19.809Z,67.62
2017-12-24T16:13:54.334Z,67.67
2017-12-24T16:16:28.745Z,67.63
2017-12-24T16:19:03.313Z,67.50
2017-12-24T16:21:37.662Z,67.25
2017-12-24T16:24:12.647Z,67.34
2017-12-24T16:26:47.070Z,66.92
2017-12-24T16:29:22.050Z,66.85
2017-12-24T16:31:56.474Z,66.56
2017-12-24T16:34:31.845Z,66.81
2017-12-24T16:37:06.339Z,66.43
2017-12-24T16:39:40.938Z,65.92
2017-12-24T16:42:15.394Z,65.83
2017-12-24T16:44:49.955Z,65.44
2017-12-24T16:47:24.326Z,65.12
2017-12-24T16:49:58.832Z,65.16
2017-12-24T16:52:33.217Z,64.90
2017-12-24T16:55:07.722Z,64.65
2017-12-24T16:57:42.216Z,64.18
2017-12-24T17:00:16.557Z,63.36
2017-12-24T17:02:51.150Z,62.69
2017-12-24T17:05:25.583Z,61.86
2017-12-24T17:08:00.034Z,61.90
2017-12-24T17:10:34.448Z,62.42
2017-12-24T17:13:09.069Z,62.12
2017-12-24T17:15:43.418Z,62.51
2017-12-24T17:18:17.970Z,62.48
2017-12-24T17:20:52.478Z,62.35
2017-12-24T17:23:27.042Z,61.90
2017-12-24T17:26:01.533Z,62.00
2017-12-24T17:28:35.987Z,62.18
2017-12-24T17:31:10.417Z,62.02
2017-12-24T17:33:44.937Z,61.89
2017-12-24T17:36:19.322Z,62.24
2017-12-24T17:38:53.798Z,62.53
2017-12-24T17:41:28.250Z,62.98
2017-12-24T17:44:02.747Z,63.49
2017-12-24T17:46:37.102Z,64.01
2017-12-24T17:49:11.762Z,64.51
2017-12-24T17:51:46.156Z,64.78
2017-12-24T17:54:20.706Z,65.17
2017-12-24T17:56:55.097Z,65.63
2017-12-24T17:59:29.589Z,65.81
2017-12-24T18:02:04.069Z,66.10
2017-12-24T18:04:38.657Z,66.30
2017-12-24T18:07:13.063Z,66.46
2017-12-24T18:09:47.498Z,66.57
2017-12-24T18:12:21.938Z,66.12
2017-12-24T18:14:56.455Z,66.16
2017-12-24T18:17:31.085Z,66.26
2017-12-24T18:20:05.698Z,66.43
2017-12-24T18:22:40.190Z,66.42
2017-12-24T18:25:14.613Z,66.71
2017-12-24T18:27:49.122Z,66.85
2017-12-24T18:30:23.631Z,67.16
2017-12-24T18:32:58.222Z,67.36
2017-12-24T18:35:32.621Z,67.45
2017-12-24T18:38:07.245Z,67.63
2017-12-24T18:40:41.634Z,67.85
2017-12-24T18:43:16.188Z,67.98
2017-12-24T18:45:50.573Z,68.09
2017-12-24T18:48:25.062Z,68.29
2017-12-24T18:50:59.661Z,68.30
2017-12-24T18:53:34.078Z,68.37
2017-12-24T18:56:08.435Z,68.48
2017-12-24T18:58:43.001Z,68.24
2017-12-24T19:01:17.454Z,68.16
2017-12-24T19:03:52.016Z,68.18
2017-12-24T19:06:27.129Z,68.12
2017-12-24T19:09:03.049Z,67.96
2017-12-24T19:11:37.410Z,67.36
2017-12-24T19:14:11.914Z,67.14
2017-12-24T19:16:46.301Z,67.31
2017-12-24T19:19:20.916Z,67.29
2017-12-24T19:21:55.317Z,67.49
2017-12-24T19:24:29.781Z,67.83
2017-12-24T19:27:04.247Z,68.04
2017-12-24T19:29:38.786Z,67.94
2017-12-24T19:32:13.162Z,67.66
2017-12-24T19:34:47.657Z,67.65
2017-12-24T19:37:22.080Z,67.40
2017-12-24T19:39:56.910Z,68.20
2017-12-24T19:42:31.563Z,69.17
2017-12-24T19:45:06.083Z,69.42
2017-12-24T19:47:40.675Z,69.72
2017-12-24T19:50:15.146Z,69.96
2017-12-24T19:52:49.690Z,70.49
2017-12-24T19:55:24.168Z,70.75
2017-12-24T19:57:58.679Z,70.66
2017-12-24T20:00:33.057Z,70.49
2017-12-24T20:03:07.606Z,70.44
2017-12-24T20:05:42.074Z,70.57
2017-12-24T20:08:16.629Z,70.18
2017-12-24T20:10:51.046Z,70.16
2017-12-24T20:13:25.655Z,70.06
2017-12-24T20:16:00.030Z,69.91
2017-12-24T20:18:34.553Z,69.77
2017-12-24T20:21:09.085Z,70.02
2017-12-24T20:23:43.618Z,69.86
2017-12-24T20:26:17.990Z,70.03
2017-12-24T20:28:52.493Z,70.24
2017-12-24T20:31:26.883Z,70.33
2017-12-24T20:34:01.442Z,70.02
2017-12-24T20:36:35.786Z,70.14
2017-12-24T20:39:10.347Z,70.33
2017-12-24T20:41:44.802Z,70.33
2017-12-24T20:44:19.380Z,70.21
2017-12-24T20:46:53.769Z,70.21
2017-12-24T20:49:28.321Z,70.09
2017-12-24T20:52:02.670Z,70.23
2017-12-24T20:54:37.231Z,70.36
2017-12-24T20:57:11.710Z,70.40
2017-12-24T20:59:46.075Z,70.59
2017-12-24T21:02:20.501Z,70.87
2017-12-24T21:04:55.065Z,71.32
2017-12-24T21:07:29.958Z,71.52
2017-12-24T21:10:04.582Z,71.66
2017-12-24T21:12:39.010Z,71.92
2017-12-24T21:15:13.496Z,72.09
2017-12-24T21:17:48.023Z,72.38
2017-12-24T21:20:22.402Z,72.44
2017-12-24T21:22:56.956Z,72.25
2017-12-24T21:25:31.662Z,72.15
2017-12-24T21:28:06.087Z,72.44
2017-12-24T21:30:40.479Z,72.28
2017-12-24T21:33:14.974Z,72.12
2017-12-24T21:35:49.329Z,72.21
2017-12-24T21:38:23.750Z,72.15
2017-12-24T21:40:58.121Z,72.05
2017-12-24T21:43:32.729Z,72.11
2017-12-24T21:46:07.182Z,72.00
2017-12-24T21:48:41.573Z,71.61
2017-12-24T21:51:16.046Z,71.58
2017-12-24T21:53:50.630Z,71.16
2017-12-24T21:56:24.993Z,71.03
2017-12-24T21:58:59.570Z,70.82
2017-12-24T22:01:34.014Z,70.95
2017-12-24T22:04:08.534Z,70.53
2017-12-24T22:06:43.025Z,69.97
2017-12-24T22:09:17.598Z,69.77
2017-12-24T22:11:51.982Z,69.49
2017-12-24T22:14:26.544Z,69.13
2017-12-24T22:17:01.038Z,68.69
2017-12-24T22:19:35.535Z,68.41
2017-12-24T22:22:09.966Z,68.20
2017-12-24T22:24:44.513Z,68.10
2017-12-24T22:27:18.877Z,68.17
2017-12-24T22:29:53.386Z,68.28
2017-12-24T22:32:27.846Z,68.43
2017-12-24T22:35:02.378Z,68.65
2017-12-24T22:37:36.775Z,68.74
2017-12-24T22:40:11.128Z,68.91
2017-12-24T22:42:45.754Z,69.06
2017-12-24T22:45:20.354Z,69.12
2017-12-24T22:47:54.810Z,69.05
2017-12-24T22:50:29.171Z,69.11
2017-12-24T22:53:03.802Z,69.30
2017-12-24T22:55:38.441Z,69.32
2017-12-24T22:58:12.933Z,69.61
2017-12-24T23:00:47.381Z,69.86
2017-12-24T23:03:21.865Z,70.35
2017-12-24T23:05:56.351Z,70.65
2017-12-24T23:08:30.982Z,70.92
2017-12-24T23:11:05.365Z,71.24
2017-12-24T23:13:40.005Z,71.53
2017-12-24T23:16:14.447Z,71.91
2017-12-24T23:18:49.023Z,72.12
2017-12-24T23:21:23.397Z,72.18
2017-12-24T23:23:57.918Z,72.37
2017-12-24T23:26:32.434Z,72.62
2017-12-24T23:29:06.923Z,72.85
2017-12-24T23:31:41.359Z,72.96
2017-12-24T23:34:15.798Z,73.23
2017-12-24T23:36:50.284Z,73.37
2017-12-24T23:39:24.821Z,73.60
2017-12-24T23:41:59.178Z,73.78
2017-12-24T23:44:34.213Z,73.96
2017-12-24T23:47:08.583Z,74.27
2017-12-24T23:49:43.158Z,74.51
2017-12-24T23:52:17.677Z,74.66
2017-12-24T23:54:52.233Z,74.93
2017-12-24T23:57:26.876Z,75.15
